createdAt,value
2022-11-29T00:01:40.613Z,24.23
2022-11-29T00:04:07.856Z,23.52
2022-11-29T00:06:36.186Z,24.33
2022-11-29T00:09:11.804Z,24.70
2022-11-29T00:17:01.877Z,24.20
2022-11-29T00:19:31.346Z,24.77
2022-11-29T00:21:59.723Z,25.25
2022-11-29T00:24:28.712Z,24.17
2022-11-29T00:26:55.954Z,24.45
2022-11-29T00:29:23.176Z,24.67
2022-11-29T00:31:50.342Z,24.42
2022-11-29T00:34:17.471Z,25.38
2022-11-29T00:36:44.644Z,27.35
2022-11-29T00:39:12.467Z,25.27
2022-11-29T00:41:40.353Z,26.65
2022-11-29T00:44:08.496Z,24.85
2022-11-29T00:46:35.972Z,24.85
2022-11-29T00:49:03.713Z,25.67
2022-11-29T00:51:30.940Z,25.55
2022-11-29T00:53:58.184Z,26.63
2022-11-29T00:56:25.659Z,26.13
2022-11-29T00:58:52.979Z,26.10
2022-11-29T01:01:20.342Z,25.48
2022-11-29T01:03:48.004Z,26.00
2022-11-29T01:06:17.839Z,26.58
2022-11-29T01:08:45.850Z,26.42
2022-11-29T01:11:25.778Z,26.88
2022-11-29T01:14:00.239Z,26.23
2022-11-29T01:16:30.560Z,27.38
2022-11-29T01:18:57.946Z,26.55
2022-11-29T01:21:25.426Z,27.08
2022-11-29T01:23:54.397Z,27.67
2022-11-29T01:26:26.880Z,29.17
2022-11-29T01:28:57.285Z,27.98
2022-11-29T01:31:33.270Z,27.90
2022-11-29T01:34:04.490Z,28.02
2022-11-29T01:36:32.351Z,27.48
2022-11-29T01:39:05.658Z,28.48
2022-11-29T01:41:37.072Z,28.33
2022-11-29T01:44:28.427Z,28.95
2022-11-29T01:46:57.344Z,29.38
2022-11-29T01:49:48.686Z,29.25
2022-11-29T01:52:28.646Z,28.67
2022-11-29T01:55:04.504Z,27.13
2022-11-29T01:57:34.917Z,28.98
2022-11-29T02:00:11.424Z,27.92
2022-11-29T02:03:14.845Z,29.08
2022-11-29T02:05:53.369Z,30.63
2022-11-29T02:08:37.686Z,30.60
2022-11-29T02:11:56.440Z,29.75
2022-11-29T02:14:51.397Z,30.17
2022-11-29T02:18:06.648Z,29.58
2022-11-29T02:21:31.621Z,29.63
2022-11-29T02:24:48.105Z,30.48
2022-11-29T02:27:53.693Z,31.02
2022-11-29T02:30:55.848Z,32.72
2022-11-29T02:34:44.084Z,31.58
2022-11-29T02:38:17.252Z,32.30
2022-11-29T02:41:36.971Z,35.13
2022-11-29T02:44:41.741Z,35.50
2022-11-29T02:47:24.249Z,33.58
2022-11-29T02:50:46.748Z,34.63
2022-11-29T02:53:52.492Z,36.10
2022-11-29T02:56:37.141Z,35.78
2022-11-29T02:59:42.998Z,34.78
2022-11-29T03:03:00.146Z,33.75
2022-11-29T03:06:35.960Z,34.58
2022-11-29T03:09:36.840Z,32.58
2022-11-29T03:12:30.901Z,32.53
2022-11-29T03:15:22.698Z,33.17
2022-11-29T03:18:51.512Z,31.85
2022-11-29T03:21:34.541Z,32.50
2022-11-29T03:24:11.991Z,33.83
2022-11-29T03:26:49.931Z,31.38
2022-11-29T03:29:47.823Z,32.05
2022-11-29T03:32:51.003Z,31.25
2022-11-29T03:35:59.036Z,29.95
2022-11-29T03:38:43.828Z,30.92
2022-11-29T03:42:07.710Z,30.83
2022-11-29T03:45:05.975Z,29.90
2022-11-29T03:47:51.583Z,30.80
2022-11-29T03:50:33.348Z,31.67
2022-11-29T03:53:34.119Z,30.42
2022-11-29T03:56:23.104Z,30.75
2022-11-29T03:59:27.007Z,30.48
2022-11-29T04:02:28.738Z,31.20
2022-11-29T04:05:29.789Z,29.70
2022-11-29T04:08:28.044Z,29.10
2022-11-29T04:12:12.927Z,30.65
2022-11-29T04:14:51.209Z,29.48
2022-11-29T04:18:07.236Z,30.05
2022-11-29T04:20:49.301Z,30.65
2022-11-29T04:23:41.164Z,30.77
2022-11-29T04:27:20.509Z,31.90
2022-11-29T04:30:18.313Z,30.08
2022-11-29T04:33:30.925Z,29.25
2022-11-29T04:37:03.707Z,30.00
2022-11-29T04:39:49.171Z,28.73
2022-11-29T04:42:37.249Z,28.63
2022-11-29T04:45:36.464Z,28.77
2022-11-29T04:48:56.496Z,30.17
2022-11-29T04:51:51.711Z,28.35
2022-11-29T04:54:57.238Z,30.73
2022-11-29T04:57:47.582Z,29.33
2022-11-29T05:00:24.930Z,28.83
2022-11-29T05:03:06.507Z,28.40
2022-11-29T05:06:23.825Z,28.85
2022-11-29T05:09:03.861Z,30.20
2022-11-29T05:12:05.535Z,28.65
2022-11-29T05:15:43.435Z,27.73
2022-11-29T05:18:56.603Z,27.33
2022-11-29T05:22:19.867Z,29.38
2022-11-29T05:25:27.812Z,27.10
2022-11-29T05:28:10.693Z,28.80
2022-11-29T05:31:26.888Z,26.92
2022-11-29T05:34:34.748Z,25.45
2022-11-29T05:37:49.023Z,25.15
2022-11-29T05:41:06.818Z,26.60
2022-11-29T05:44:16.928Z,26.80
2022-11-29T05:47:04.754Z,27.58
2022-11-29T05:49:53.717Z,26.85
2022-11-29T05:52:50.125Z,27.38
2022-11-29T05:55:55.083Z,27.70
2022-11-29T05:59:11.920Z,28.73
2022-11-29T06:02:29.488Z,28.05
2022-11-29T06:06:07.065Z,27.63
2022-11-29T06:08:48.843Z,27.50
2022-11-29T06:11:33.832Z,28.02
2022-11-29T06:14:53.469Z,29.27
2022-11-29T06:18:08.693Z,28.73
2022-11-29T06:20:47.621Z,27.95
2022-11-29T06:24:27.392Z,29.77
2022-11-29T06:27:50.516Z,28.40
2022-11-29T06:30:26.709Z,27.52
2022-11-29T06:33:28.907Z,28.33
2022-11-29T06:36:23.413Z,27.38
2022-11-29T06:38:50.990Z,29.05
2022-11-29T06:41:24.465Z,27.77
2022-11-29T06:43:52.196Z,27.48
2022-11-29T06:46:47.364Z,28.13
2022-11-29T06:49:55.852Z,28.27
2022-11-29T06:52:51.737Z,28.02
2022-11-29T06:55:54.926Z,29.35
2022-11-29T06:59:04.391Z,29.02
2022-11-29T07:02:42.724Z,29.73
2022-11-29T07:05:40.780Z,26.98
2022-11-29T07:08:26.572Z,27.52
2022-11-29T07:10:55.599Z,29.17
2022-11-29T07:13:23.558Z,30.00
2022-11-29T07:16:55.826Z,29.35
2022-11-29T07:19:51.559Z,29.15
2022-11-29T07:22:55.136Z,27.15
2022-11-29T07:26:10.711Z,27.52
2022-11-29T07:29:08.019Z,29.58
2022-11-29T07:31:48.293Z,29.50
2022-11-29T07:35:17.466Z,31.63
2022-11-29T07:38:09.972Z,29.65
2022-11-29T07:41:27.791Z,29.85
2022-11-29T07:44:31.187Z,28.40
2022-11-29T07:46:58.411Z,28.88
2022-11-29T07:49:25.672Z,31.73
2022-11-29T07:51:55.118Z,33.22
2022-11-29T07:54:23.072Z,35.15
2022-11-29T07:56:50.306Z,37.58
2022-11-29T07:59:17.557Z,35.20
2022-11-29T08:01:44.801Z,31.98
2022-11-29T08:04:12.057Z,32.13
2022-11-29T08:06:39.490Z,33.47
2022-11-29T08:09:07.744Z,32.13
2022-11-29T08:11:35.055Z,32.30
2022-11-29T08:14:05.032Z,32.53
2022-11-29T08:16:32.928Z,32.47
2022-11-29T08:19:00.677Z,30.70
2022-11-29T08:21:28.191Z,29.45
2022-11-29T08:23:55.436Z,26.02
2022-11-29T08:26:25.610Z,29.73
2022-11-29T08:28:55.708Z,28.08
2022-11-29T08:31:22.922Z,28.40
2022-11-29T08:33:50.162Z,26.70
2022-11-29T08:36:20.158Z,28.85
2022-11-29T08:38:48.258Z,27.42
2022-11-29T08:41:17.765Z,25.75
2022-11-29T08:43:45.196Z,27.15
2022-11-29T08:46:18.248Z,27.83
2022-11-29T08:48:47.538Z,28.83
2022-11-29T08:51:15.320Z,27.77
2022-11-29T08:53:42.723Z,26.73
2022-11-29T08:57:04.448Z,26.45
2022-11-29T08:59:06.210Z,27.92
2022-11-29T09:01:33.520Z,26.45
2022-11-29T09:04:03.001Z,20.48
2022-11-29T09:06:40.615Z,20.85
2022-11-29T09:09:08.315Z,20.27
2022-11-29T09:11:36.636Z,20.30
2022-11-29T09:14:07.733Z,19.70
2022-11-29T09:16:38.321Z,18.87
2022-11-29T09:19:06.641Z,19.45
2022-11-29T09:21:36.719Z,21.55
2022-11-29T09:24:06.655Z,20.35
2022-11-29T09:26:37.850Z,20.75
2022-11-29T09:29:06.755Z,20.65
2022-11-29T09:31:35.133Z,20.13
2022-11-29T09:34:02.512Z,21.80
2022-11-29T09:36:31.515Z,20.23
2022-11-29T09:39:02.726Z,21.15
2022-11-29T09:42:07.798Z,20.90
2022-11-29T09:44:46.724Z,19.75
2022-11-29T09:47:36.056Z,19.13
2022-11-29T09:50:35.688Z,20.95
2022-11-29T09:53:48.996Z,23.27
2022-11-29T09:56:33.177Z,22.10
2022-11-29T09:59:22.716Z,23.55
2022-11-29T10:02:48.107Z,23.15
2022-11-29T10:05:44.111Z,23.20
2022-11-29T10:08:36.896Z,23.08
2022-11-29T10:11:35.136Z,23.35
2022-11-29T10:14:16.586Z,23.13
2022-11-29T10:17:03.952Z,20.33
2022-11-29T10:19:47.547Z,20.27
2022-11-29T10:22:54.471Z,21.83
2022-11-29T10:25:51.509Z,21.23
2022-11-29T10:28:32.441Z,21.00
2022-11-29T10:31:25.251Z,21.58
2022-11-29T10:33:54.944Z,20.88
2022-11-29T10:36:47.589Z,24.80
2022-11-29T10:39:44.566Z,25.70
2022-11-29T10:42:40.851Z,18.42
2022-11-29T10:45:38.822Z,18.20
2022-11-29T10:48:19.951Z,19.92
2022-11-29T10:50:51.235Z,20.33
2022-11-29T10:53:30.606Z,23.15
2022-11-29T10:56:07.645Z,23.50
2022-11-29T10:58:35.803Z,22.25
2022-11-29T11:01:07.070Z,24.08
2022-11-29T11:04:07.436Z,22.98
2022-11-29T11:06:57.629Z,21.98
2022-11-29T11:09:48.852Z,23.83
2022-11-29T11:12:16.075Z,22.02
2022-11-29T11:14:45.229Z,26.23
2022-11-29T11:17:33.870Z,25.02
2022-11-29T11:20:08.682Z,17.50
2022-11-29T11:22:39.837Z,19.30
2022-11-29T11:25:31.428Z,19.42
2022-11-29T11:28:25.098Z,19.08
2022-11-29T11:31:08.404Z,18.42
2022-11-29T11:33:44.988Z,17.50
2022-11-29T11:36:24.523Z,18.95
2022-11-29T11:39:17.765Z,17.35
2022-11-29T11:42:05.467Z,17.25
2022-11-29T11:44:52.472Z,16.83
2022-11-29T11:47:26.151Z,18.55
2022-11-29T11:50:06.674Z,18.25
2022-11-29T11:52:53.832Z,18.88
2022-11-29T11:55:43.513Z,19.55
2022-11-29T11:58:13.701Z,18.95
2022-11-29T12:01:05.690Z,19.05
2022-11-29T12:04:17.992Z,14.48
2022-11-29T12:07:10.031Z,17.75
2022-11-29T12:09:55.771Z,16.30
2022-11-29T12:12:37.095Z,16.52
2022-11-29T12:15:38.115Z,16.30
2022-11-29T12:18:42.477Z,16.27
2022-11-29T12:21:23.728Z,16.17
2022-11-29T12:24:34.526Z,16.38
2022-11-29T12:27:05.626Z,16.42
2022-11-29T12:29:35.119Z,16.90
2022-11-29T12:32:33.808Z,17.08
2022-11-29T12:35:52.965Z,17.40
2022-11-29T12:38:49.948Z,14.40
2022-11-29T12:41:47.257Z,14.57
2022-11-29T12:44:55.909Z,14.20
2022-11-29T12:47:55.624Z,14.23
2022-11-29T12:50:58.708Z,13.98
2022-11-29T12:53:51.883Z,14.07
2022-11-29T12:56:36.948Z,14.43
2022-11-29T13:00:03.675Z,15.15
2022-11-29T13:03:21.632Z,14.57
2022-11-29T13:05:57.488Z,13.95
2022-11-29T13:08:55.965Z,14.98
2022-11-29T13:11:32.137Z,14.05
2022-11-29T13:14:43.186Z,13.98
2022-11-29T13:17:41.211Z,13.45
2022-11-29T13:20:36.092Z,13.77
2022-11-29T13:24:07.234Z,14.05
2022-11-29T13:26:27.828Z,13.00
2022-11-29T13:28:56.233Z,13.68
2022-11-29T13:31:25.569Z,14.82
2022-11-29T13:34:13.293Z,14.13
2022-11-29T13:37:20.545Z,16.83
2022-11-29T13:40:38.101Z,15.90
2022-11-29T13:43:35.360Z,18.13
2022-11-29T13:46:36.447Z,18.60
2022-11-29T13:49:03.818Z,18.98
2022-11-29T13:51:41.099Z,18.52
2022-11-29T13:54:33.596Z,18.58
2022-11-29T13:57:09.685Z,18.58
2022-11-29T13:59:44.293Z,18.35
2022-11-29T14:02:31.168Z,20.95
2022-11-29T14:04:58.946Z,17.75
2022-11-29T14:07:26.213Z,18.42
2022-11-29T14:10:07.083Z,19.05
2022-11-29T14:12:50.731Z,19.02
2022-11-29T14:15:33.560Z,18.15
2022-11-29T14:18:08.216Z,17.02
2022-11-29T14:20:45.103Z,14.95
2022-11-29T14:23:34.772Z,16.10
2022-11-29T14:26:01.798Z,17.27
2022-11-29T14:28:39.745Z,18.85
2022-11-29T14:31:10.702Z,17.63
2022-11-29T14:33:47.039Z,17.60
2022-11-29T14:36:54.693Z,18.58
2022-11-29T14:39:46.954Z,19.33
2022-11-29T14:42:20.920Z,17.50
2022-11-29T14:45:00.657Z,16.25
2022-11-29T14:47:38.855Z,16.10
2022-11-29T14:50:10.361Z,17.35
2022-11-29T14:52:51.465Z,17.48
2022-11-29T14:55:21.242Z,17.95
2022-11-29T14:57:48.377Z,17.38
2022-11-29T15:00:32.402Z,17.05
2022-11-29T15:03:37.795Z,15.77
2022-11-29T15:06:14.130Z,15.65
2022-11-29T15:09:03.957Z,16.55
2022-11-29T15:11:48.021Z,17.75
2022-11-29T15:15:19.665Z,17.17
2022-11-29T15:18:24.664Z,17.23
2022-11-29T15:21:43.568Z,17.13
2022-11-29T15:24:15.833Z,17.42
2022-11-29T15:27:12.841Z,17.88
2022-11-29T15:29:39.977Z,16.52
2022-11-29T15:32:12.831Z,18.33
2022-11-29T15:34:50.367Z,16.58
2022-11-29T15:37:36.475Z,18.88
2022-11-29T15:43:19.306Z,18.08
2022-11-29T15:45:51.411Z,18.98
2022-11-29T15:48:29.105Z,19.02
2022-11-29T15:51:20.797Z,20.30
2022-11-29T15:54:43.444Z,18.45
2022-11-29T15:57:30.121Z,18.75
2022-11-29T16:00:02.241Z,19.27
2022-11-29T16:02:38.091Z,20.27
2022-11-29T16:05:30.914Z,18.95
2022-11-29T16:08:05.298Z,20.10
2022-11-29T16:10:43.612Z,18.83
2022-11-29T16:13:35.789Z,19.23
2022-11-29T16:16:15.500Z,20.23
2022-11-29T16:18:46.626Z,20.48
2022-11-29T16:21:32.114Z,20.85
2022-11-29T16:24:18.488Z,23.38
2022-11-29T16:26:47.212Z,21.20
2022-11-29T16:29:34.851Z,22.00
2022-11-29T16:32:28.601Z,23.48
2022-11-29T16:35:06.029Z,20.85
2022-11-29T16:37:44.060Z,20.95
2022-11-29T16:40:26.323Z,21.45
2022-11-29T16:43:24.073Z,22.35
2022-11-29T16:46:20.171Z,23.17
2022-11-29T16:48:57.274Z,22.45
2022-11-29T16:51:38.648Z,22.88
2022-11-29T16:54:31.689Z,26.55
2022-11-29T16:56:58.920Z,29.45
2022-11-29T16:59:28.401Z,29.77
2022-11-29T17:01:56.922Z,30.30
2022-11-29T17:04:25.651Z,31.10
2022-11-29T17:06:57.423Z,29.17
2022-11-29T17:09:32.450Z,29.05
2022-11-29T17:12:01.480Z,28.48
2022-11-29T17:14:29.592Z,27.35
2022-11-29T17:16:57.575Z,27.10
2022-11-29T17:19:24.940Z,24.85
2022-11-29T17:21:52.978Z,25.67
2022-11-29T17:24:22.865Z,25.08
2022-11-29T17:26:51.188Z,25.35
2022-11-29T17:29:19.001Z,25.42
2022-11-29T17:31:46.984Z,24.83
2022-11-29T17:34:14.301Z,25.92
2022-11-29T17:36:41.892Z,25.77
2022-11-29T17:39:09.353Z,24.20
2022-11-29T17:41:36.889Z,24.83
2022-11-29T17:44:04.776Z,24.58
2022-11-29T17:46:36.330Z,24.58
2022-11-29T17:49:08.476Z,25.63
2022-11-29T17:51:54.224Z,27.38
2022-11-29T17:54:22.973Z,26.95
2022-11-29T17:56:51.456Z,26.33
2022-11-29T17:59:18.954Z,46.60
2022-11-29T18:01:49.328Z,52.38
2022-11-29T18:04:16.822Z,65.88
2022-11-29T18:06:49.395Z,36.83
2022-11-29T18:09:17.830Z,29.75
2022-11-29T18:11:49.346Z,34.22
2022-11-29T18:14:28.220Z,30.65
2022-11-29T18:16:55.804Z,29.35
2022-11-29T18:19:23.398Z,28.20
2022-11-29T18:21:50.947Z,26.98
2022-11-29T18:24:18.843Z,26.65
2022-11-29T18:26:46.872Z,26.20
2022-11-29T18:29:14.350Z,27.45
2022-11-29T18:31:45.891Z,28.13
2022-11-29T18:34:14.775Z,28.80
2022-11-29T18:36:48.620Z,30.65
2022-11-29T18:39:19.740Z,35.25
2022-11-29T18:41:49.988Z,37.72
2022-11-29T18:44:21.523Z,33.63
2022-11-29T18:46:48.864Z,32.10
2022-11-29T18:49:18.203Z,31.77
2022-11-29T18:51:46.829Z,35.00
2022-11-29T18:54:17.152Z,34.20
2022-11-29T18:56:45.998Z,33.40
2022-11-29T18:59:17.356Z,32.80
2022-11-29T19:01:47.905Z,37.17
2022-11-29T19:04:21.072Z,47.28
2022-11-29T19:06:49.315Z,43.65
2022-11-29T19:09:21.286Z,37.20
2022-11-29T19:11:49.719Z,34.50
2022-11-29T19:14:17.820Z,32.28
2022-11-29T19:16:48.371Z,33.78
2022-11-29T19:19:15.620Z,33.03
2022-11-29T19:21:42.805Z,31.35
2022-11-29T19:24:15.587Z,32.03
2022-11-29T19:26:46.280Z,33.92
2022-11-29T19:29:15.123Z,33.10
2022-11-29T19:31:43.192Z,33.45
2022-11-29T19:34:10.907Z,34.38
2022-11-29T19:36:43.853Z,31.58
2022-11-29T19:39:17.463Z,34.75
2022-11-29T19:41:47.787Z,30.95
2022-11-29T19:44:15.424Z,30.65
2022-11-29T19:46:48.396Z,30.45
2022-11-29T19:49:16.338Z,30.55
2022-11-29T19:51:43.585Z,31.15
2022-11-29T19:54:12.377Z,32.63
2022-11-29T19:56:39.852Z,32.72
2022-11-29T19:59:08.846Z,33.13
2022-11-29T20:01:41.314Z,31.90
2022-11-29T20:04:11.154Z,38.65
2022-11-29T20:06:40.269Z,39.15
2022-11-29T20:09:07.805Z,41.65
2022-11-29T20:11:35.597Z,42.17
2022-11-29T20:14:06.090Z,41.83
2022-11-29T20:16:33.841Z,39.03
2022-11-29T20:19:02.180Z,37.50
2022-11-29T20:21:32.833Z,38.70
2022-11-29T20:24:07.593Z,36.00
2022-11-29T20:26:38.429Z,37.75
2022-11-29T20:29:08.294Z,36.88
2022-11-29T20:31:43.066Z,36.50
2022-11-29T20:34:14.824Z,35.47
2022-11-29T20:37:02.089Z,34.78
2022-11-29T20:40:03.909Z,35.40
2022-11-29T20:43:02.804Z,35.25
2022-11-29T20:45:30.412Z,35.58
2022-11-29T20:48:17.698Z,36.30
2022-11-29T20:50:59.780Z,36.22
2022-11-29T20:53:40.564Z,35.03
2022-11-29T20:56:10.748Z,35.67
2022-11-29T20:58:38.910Z,34.58
2022-11-29T21:01:07.410Z,35.53
2022-11-29T21:03:35.062Z,36.85
2022-11-29T21:06:05.528Z,36.40
2022-11-29T21:08:33.945Z,38.47
2022-11-29T21:11:10.133Z,38.95
2022-11-29T21:13:38.521Z,37.85
2022-11-29T21:16:06.806Z,38.03
2022-11-29T21:18:34.698Z,38.65
2022-11-29T21:21:26.976Z,39.58
2022-11-29T21:24:28.679Z,38.00
2022-11-29T21:26:56.175Z,37.55
2022-11-29T21:29:24.308Z,39.33
2022-11-29T21:31:54.164Z,41.92
2022-11-29T21:34:22.320Z,40.38
2022-11-29T21:36:58.994Z,41.15
2022-11-29T21:39:33.383Z,41.63
2022-11-29T21:42:00.808Z,40.42
2022-11-29T21:44:27.968Z,41.47
2022-11-29T21:46:55.443Z,40.35
2022-11-29T21:49:22.694Z,41.88
2022-11-29T21:51:49.981Z,43.65
2022-11-29T21:54:17.271Z,49.17
2022-11-29T21:56:44.433Z,55.00
2022-11-29T21:59:11.596Z,55.75
2022-11-29T22:01:38.976Z,52.58
2022-11-29T22:04:06.236Z,50.20
2022-11-29T22:06:33.541Z,48.40
2022-11-29T22:09:01.061Z,48.05
2022-11-29T22:11:31.353Z,47.38
2022-11-29T22:14:19.855Z,47.72
2022-11-29T22:16:56.037Z,46.63
2022-11-29T22:19:28.560Z,50.97
2022-11-29T22:22:00.381Z,50.50
2022-11-29T22:24:32.057Z,51.65
2022-11-29T22:26:59.669Z,51.60
2022-11-29T22:29:27.268Z,51.38
2022-11-29T22:31:56.593Z,51.30
2022-11-29T22:34:26.636Z,49.33
2022-11-29T22:36:54.616Z,47.35
2022-11-29T22:39:23.924Z,48.83
2022-11-29T22:41:54.591Z,49.08
2022-11-29T22:44:25.865Z,47.50
2022-11-29T22:46:53.227Z,46.58
2022-11-29T22:49:20.727Z,48.28
2022-11-29T22:51:48.212Z,48.95
2022-11-29T22:54:16.334Z,47.83
2022-11-29T22:56:44.978Z,48.25
2022-11-29T22:59:12.919Z,49.25
2022-11-29T23:01:41.942Z,47.35
2022-11-29T23:04:12.057Z,46.90
2022-11-29T23:06:45.588Z,48.75
2022-11-29T23:09:22.196Z,49.53
2022-11-29T23:11:53.890Z,48.67
2022-11-29T23:14:22.708Z,47.35
2022-11-29T23:16:50.293Z,49.78
2022-11-29T23:19:17.851Z,50.65
2022-11-29T23:21:46.155Z,49.63
2022-11-29T23:24:15.307Z,49.50
2022-11-29T23:26:46.758Z,50.45
2022-11-29T23:29:18.425Z,53.35
2022-11-29T23:31:47.027Z,52.70
2022-11-29T23:34:14.720Z,49.15
2022-11-29T23:36:41.958Z,52.72
2022-11-29T23:39:09.304Z,52.45
2022-11-29T23:41:37.019Z,50.38
2022-11-29T23:44:06.204Z,49.65
2022-11-29T23:46:35.165Z,47.90
2022-11-29T23:49:02.616Z,49.10
2022-11-29T23:51:29.907Z,47.33
2022-11-29T23:53:57.051Z,49.97
2022-11-29T23:56:24.185Z,50.05
2022-11-29T23:58:51.417Z,47.55
